West Lake — 3FHS5 — position and weather

sailwx.info

Track history (hours):
 
Tides and Currents Weather Stations Pressure Air Temp Water Temp Dewpoint Dewpoint Depression Visibility Wind Speed Wind Dir Waves Ship Positions

West Lake

Last reported at 2018-Apr-01 16:38 UTC. Time now 2018-May-23 16:32 UTC.
Position S 30°25' E 030°50'.
Warning: this ship's position is 51 days out of date.

Length 188 m; draft 6.1 m.

Type: Cargo ship. MMSI: 355304000.

Date/timePositionNaut miles runAvg speedWind from/ knotsBaromVisibWave heightAir tempDewpointWater temp
2018-Apr-01 16:38S 30°25' E 030°50'213.0
2018-Apr-01 16:27S 30°23' E 030°52'612.8
2018-Apr-01 16:00S 30°18' E 030°56'612.6
2018-Apr-01 15:30S 30°13' E 030°60'612.3
2018-Apr-01 15:00S 30°08' E 031°03'612.1
2018-Apr-01 14:30S 30°02' E 031°05'612.4
2018-Apr-01 14:01S 29°56' E 031°05'4 8.7
2018-Apr-01 13:30S 29°52' E 031°04'2 3.0
2018-Apr-01 13:00S 29°52' E 031°03'0 0.0
2018-Apr-01 12:27S 29°52' E 031°03'0 0.0
2018-Apr-01 11:57S 29°52' E 031°03'0 0.0
2018-Apr-01 11:27S 29°52' E 031°03'0 0.0
2018-Apr-01 10:57S 29°52' E 031°03'0 0.0
2018-Apr-01 10:27S 29°52' E 031°03'0 0.0
2018-Apr-01 09:57S 29°52' E 031°03'0 0.0
2018-Apr-01 09:27S 29°52' E 031°03'0 0.0
2018-Apr-01 08:57S 29°52' E 031°03'0 0.0
2018-Apr-01 08:27S 29°52' E 031°03'0 0.0
2018-Apr-01 07:57S 29°52' E 031°03'0 0.0
2018-Apr-01 07:27S 29°52' E 031°03'0 0.0
2018-Apr-01 06:57S 29°52' E 031°03'0 0.0
2018-Apr-01 06:27S 29°52' E 031°03'0 0.0
2018-Apr-01 05:57S 29°52' E 031°03'0 0.0
2018-Apr-01 05:27S 29°52' E 031°03'0 0.0
2018-Apr-01 04:57S 29°52' E 031°03'0 0.0
2018-Apr-01 04:27S 29°52' E 031°03'0 0.0
2018-Apr-01 03:57S 29°52' E 031°03'0 0.0
2018-Apr-01 03:27S 29°52' E 031°03'0 0.0
2018-Apr-01 03:00S 29°52' E 031°03'1 1.5
2018-Apr-01 02:30S 29°52' E 031°03'4 8.7
2018-Apr-01 02:00S 29°49' E 031°06'2 3.6
2018-Apr-01 01:30S 29°49' E 031°08'4 7.3
2018-Apr-01 01:00S 29°48' E 031°13'5 9.1
2018-Apr-01 00:30S 29°47' E 031°18'612.7
2018-Apr-01 00:00S 29°45' E 031°25'612.8
2018-Mar-31 23:30S 29°43' E 031°32'612.9
2018-Mar-31 23:00S 29°42' E 031°39'713.5
2018-Mar-31 22:31S 29°40' E 031°46'714.2
2018-Mar-31 21:59S 29°38' E 031°54'3714.1
2018-Mar-31 19:23S 29°27' E 032°35'  
Track history (hours):
 
Tides and Currents Weather Stations Pressure Air Temp Water Temp Dewpoint Dewpoint Depression Visibility Wind Speed Wind Dir Waves Ship Positions

West Lake

Last reported at 2018-Apr-01 16:38 UTC. Time now 2018-May-23 16:32 UTC.
Position S 30°25' E 030°50'.
Warning: this ship's position is 51 days out of date.

Length 188 m; draft 6.1 m.

Type: Cargo ship. MMSI: 355304000.

Date/timePositionNaut miles runAvg speedWind from/ knotsBaromVisibWave heightAir tempDewpointWater temp
2018-Apr-01 16:38S 30°25' E 030°50'213.0
2018-Apr-01 16:27S 30°23' E 030°52'612.8
2018-Apr-01 16:00S 30°18' E 030°56'612.6
2018-Apr-01 15:30S 30°13' E 030°60'612.3
2018-Apr-01 15:00S 30°08' E 031°03'612.1
2018-Apr-01 14:30S 30°02' E 031°05'612.4
2018-Apr-01 14:01S 29°56' E 031°05'4 8.7
2018-Apr-01 13:30S 29°52' E 031°04'2 3.0
2018-Apr-01 13:00S 29°52' E 031°03'0 0.0
2018-Apr-01 12:27S 29°52' E 031°03'0 0.0
2018-Apr-01 11:57S 29°52' E 031°03'0 0.0
2018-Apr-01 11:27S 29°52' E 031°03'0 0.0
2018-Apr-01 10:57S 29°52' E 031°03'0 0.0
2018-Apr-01 10:27S 29°52' E 031°03'0 0.0
2018-Apr-01 09:57S 29°52' E 031°03'0 0.0
2018-Apr-01 09:27S 29°52' E 031°03'0 0.0
2018-Apr-01 08:57S 29°52' E 031°03'0 0.0
2018-Apr-01 08:27S 29°52' E 031°03'0 0.0
2018-Apr-01 07:57S 29°52' E 031°03'0 0.0
2018-Apr-01 07:27S 29°52' E 031°03'0 0.0
2018-Apr-01 06:57S 29°52' E 031°03'0 0.0
2018-Apr-01 06:27S 29°52' E 031°03'0 0.0
2018-Apr-01 05:57S 29°52' E 031°03'0 0.0
2018-Apr-01 05:27S 29°52' E 031°03'0 0.0
2018-Apr-01 04:57S 29°52' E 031°03'0 0.0
2018-Apr-01 04:27S 29°52' E 031°03'0 0.0
2018-Apr-01 03:57S 29°52' E 031°03'0 0.0
2018-Apr-01 03:27S 29°52' E 031°03'0 0.0
2018-Apr-01 03:00S 29°52' E 031°03'1 1.5
2018-Apr-01 02:30S 29°52' E 031°03'4 8.7
2018-Apr-01 02:00S 29°49' E 031°06'2 3.6
2018-Apr-01 01:30S 29°49' E 031°08'4 7.3
2018-Apr-01 01:00S 29°48' E 031°13'5 9.1
2018-Apr-01 00:30S 29°47' E 031°18'612.7
2018-Apr-01 00:00S 29°45' E 031°25'612.8
2018-Mar-31 23:30S 29°43' E 031°32'612.9
2018-Mar-31 23:00S 29°42' E 031°39'713.5
2018-Mar-31 22:31S 29°40' E 031°46'714.2
2018-Mar-31 21:59S 29°38' E 031°54'3714.1
2018-Mar-31 19:23S 29°27' E 032°35'  

Dump ship's entire track history